sensor_id;sensor_type;location;lat;lon;timestamp;P1;durP1;ratioP1;P2;durP2;ratioP2
71572;SDS011;59408;51.032;9.410;2023-05-07T00:00:20;23.52;;;14.85;;
71572;SDS011;59408;51.032;9.410;2023-05-07T00:02:47;27.10;;;14.73;;
71572;SDS011;59408;51.032;9.410;2023-05-07T00:05:14;22.60;;;13.97;;
71572;SDS011;59408;51.032;9.410;2023-05-07T00:07:41;23.50;;;14.48;;
71572;SDS011;59408;51.032;9.410;2023-05-07T00:10:10;24.02;;;14.57;;
71572;SDS011;59408;51.032;9.410;2023-05-07T00:12:37;24.73;;;14.70;;
71572;SDS011;59408;51.032;9.410;2023-05-07T00:15:04;23.08;;;13.88;;
71572;SDS011;59408;51.032;9.410;2023-05-07T00:17:32;22.90;;;13.17;;
71572;SDS011;59408;51.032;9.410;2023-05-07T00:19:59;22.30;;;13.68;;
71572;SDS011;59408;51.032;9.410;2023-05-07T00:22:26;25.95;;;14.80;;
71572;SDS011;59408;51.032;9.410;2023-05-07T00:24:52;25.40;;;14.38;;
71572;SDS011;59408;51.032;9.410;2023-05-07T00:27:20;25.13;;;14.48;;
71572;SDS011;59408;51.032;9.410;2023-05-07T00:29:47;23.03;;;13.77;;
71572;SDS011;59408;51.032;9.410;2023-05-07T00:32:14;26.33;;;13.88;;
71572;SDS011;59408;51.032;9.410;2023-05-07T00:34:41;23.90;;;14.27;;
71572;SDS011;59408;51.032;9.410;2023-05-07T00:37:07;26.40;;;14.00;;
71572;SDS011;59408;51.032;9.410;2023-05-07T00:39:34;24.67;;;13.93;;
71572;SDS011;59408;51.032;9.410;2023-05-07T00:42:01;24.77;;;14.20;;
71572;SDS011;59408;51.032;9.410;2023-05-07T00:44:29;24.92;;;13.88;;
71572;SDS011;59408;51.032;9.410;2023-05-07T00:46:56;26.45;;;13.68;;
71572;SDS011;59408;51.032;9.410;2023-05-07T00:49:23;26.90;;;13.82;;
71572;SDS011;59408;51.032;9.410;2023-05-07T00:51:57;25.88;;;14.30;;
71572;SDS011;59408;51.032;9.410;2023-05-07T00:54:24;24.43;;;13.50;;
71572;SDS011;59408;51.032;9.410;2023-05-07T00:56:50;23.17;;;13.88;;
71572;SDS011;59408;51.032;9.410;2023-05-07T00:59:17;24.85;;;13.70;;
71572;SDS011;59408;51.032;9.410;2023-05-07T01:01:45;25.08;;;13.73;;
71572;SDS011;59408;51.032;9.410;2023-05-07T01:04:12;24.05;;;12.95;;
71572;SDS011;59408;51.032;9.410;2023-05-07T01:06:39;26.33;;;14.53;;
71572;SDS011;59408;51.032;9.410;2023-05-07T01:09:07;25.23;;;14.77;;
71572;SDS011;59408;51.032;9.410;2023-05-07T01:11:34;27.38;;;14.73;;
71572;SDS011;59408;51.032;9.410;2023-05-07T01:14:01;26.20;;;14.93;;
71572;SDS011;59408;51.032;9.410;2023-05-07T01:16:28;24.42;;;14.73;;
71572;SDS011;59408;51.032;9.410;2023-05-07T01:18:56;27.70;;;14.07;;
71572;SDS011;59408;51.032;9.410;2023-05-07T01:21:24;26.85;;;15.20;;
71572;SDS011;59408;51.032;9.410;2023-05-07T01:23:53;28.17;;;14.60;;
71572;SDS011;59408;51.032;9.410;2023-05-07T01:26:20;24.88;;;13.68;;
71572;SDS011;59408;51.032;9.410;2023-05-07T01:28:47;25.25;;;14.65;;
71572;SDS011;59408;51.032;9.410;2023-05-07T01:31:14;27.00;;;15.23;;
71572;SDS011;59408;51.032;9.410;2023-05-07T01:33:43;26.15;;;14.60;;
71572;SDS011;59408;51.032;9.410;2023-05-07T01:36:12;25.65;;;14.85;;
71572;SDS011;59408;51.032;9.410;2023-05-07T01:38:40;26.95;;;14.40;;
71572;SDS011;59408;51.032;9.410;2023-05-07T01:41:09;28.95;;;14.98;;
71572;SDS011;59408;51.032;9.410;2023-05-07T01:43:37;27.43;;;14.77;;
71572;SDS011;59408;51.032;9.410;2023-05-07T01:46:04;26.85;;;15.30;;
71572;SDS011;59408;51.032;9.410;2023-05-07T01:48:31;27.92;;;15.48;;
71572;SDS011;59408;51.032;9.410;2023-05-07T01:50:58;28.38;;;14.43;;
71572;SDS011;59408;51.032;9.410;2023-05-07T01:53:26;28.50;;;15.45;;
71572;SDS011;59408;51.032;9.410;2023-05-07T01:55:53;26.90;;;15.03;;
71572;SDS011;59408;51.032;9.410;2023-05-07T01:58:21;29.65;;;14.85;;
71572;SDS011;59408;51.032;9.410;2023-05-07T02:00:48;28.35;;;15.73;;
71572;SDS011;59408;51.032;9.410;2023-05-07T02:03:14;28.73;;;15.75;;
71572;SDS011;59408;51.032;9.410;2023-05-07T02:05:41;30.45;;;15.52;;
71572;SDS011;59408;51.032;9.410;2023-05-07T02:08:07;29.13;;;15.07;;
71572;SDS011;59408;51.032;9.410;2023-05-07T02:10:34;28.70;;;15.50;;
71572;SDS011;59408;51.032;9.410;2023-05-07T02:13:01;31.30;;;16.45;;
71572;SDS011;59408;51.032;9.410;2023-05-07T02:15:29;29.83;;;16.20;;
71572;SDS011;59408;51.032;9.410;2023-05-07T02:17:59;28.02;;;15.43;;
71572;SDS011;59408;51.032;9.410;2023-05-07T02:20:27;29.23;;;15.45;;
71572;SDS011;59408;51.032;9.410;2023-05-07T02:22:54;31.73;;;16.30;;
71572;SDS011;59408;51.032;9.410;2023-05-07T02:25:21;33.60;;;15.93;;
71572;SDS011;59408;51.032;9.410;2023-05-07T02:27:47;32.22;;;16.38;;
71572;SDS011;59408;51.032;9.410;2023-05-07T02:30:14;30.08;;;16.17;;
71572;SDS011;59408;51.032;9.410;2023-05-07T02:32:45;30.25;;;16.10;;
71572;SDS011;59408;51.032;9.410;2023-05-07T02:35:12;32.43;;;17.03;;
71572;SDS011;59408;51.032;9.410;2023-05-07T02:37:38;34.33;;;17.08;;
71572;SDS011;59408;51.032;9.410;2023-05-07T02:40:05;30.83;;;16.45;;
71572;SDS011;59408;51.032;9.410;2023-05-07T02:42:33;34.55;;;18.02;;
71572;SDS011;59408;51.032;9.410;2023-05-07T02:44:59;33.90;;;17.27;;
71572;SDS011;59408;51.032;9.410;2023-05-07T02:47:26;35.67;;;18.40;;
71572;SDS011;59408;51.032;9.410;2023-05-07T02:49:54;34.78;;;18.40;;
71572;SDS011;59408;51.032;9.410;2023-05-07T02:52:21;34.28;;;17.05;;
71572;SDS011;59408;51.032;9.410;2023-05-07T02:54:48;32.92;;;17.42;;
71572;SDS011;59408;51.032;9.410;2023-05-07T02:57:15;34.13;;;17.48;;
71572;SDS011;59408;51.032;9.410;2023-05-07T02:59:41;33.70;;;17.60;;
71572;SDS011;59408;51.032;9.410;2023-05-07T03:02:08;34.78;;;17.63;;
71572;SDS011;59408;51.032;9.410;2023-05-07T03:04:35;35.03;;;17.10;;
71572;SDS011;59408;51.032;9.410;2023-05-07T03:07:03;35.33;;;17.73;;
71572;SDS011;59408;51.032;9.410;2023-05-07T03:09:29;34.47;;;17.83;;
71572;SDS011;59408;51.032;9.410;2023-05-07T03:11:56;34.13;;;17.33;;
71572;SDS011;59408;51.032;9.410;2023-05-07T03:14:23;33.22;;;17.23;;
71572;SDS011;59408;51.032;9.410;2023-05-07T03:16:49;37.15;;;18.10;;
71572;SDS011;59408;51.032;9.410;2023-05-07T03:19:16;34.60;;;17.15;;
71572;SDS011;59408;51.032;9.410;2023-05-07T03:21:43;32.55;;;17.27;;
71572;SDS011;59408;51.032;9.410;2023-05-07T03:24:11;34.97;;;17.63;;
71572;SDS011;59408;51.032;9.410;2023-05-07T03:26:37;33.88;;;17.15;;
71572;SDS011;59408;51.032;9.410;2023-05-07T03:29:04;30.75;;;15.95;;
71572;SDS011;59408;51.032;9.410;2023-05-07T03:31:30;33.28;;;16.92;;
71572;SDS011;59408;51.032;9.410;2023-05-07T03:33:57;33.33;;;16.58;;
71572;SDS011;59408;51.032;9.410;2023-05-07T03:36:24;31.90;;;17.13;;
71572;SDS011;59408;51.032;9.410;2023-05-07T03:38:50;31.17;;;16.70;;
71572;SDS011;59408;51.032;9.410;2023-05-07T03:41:18;33.35;;;16.80;;
71572;SDS011;59408;51.032;9.410;2023-05-07T03:43:45;30.23;;;16.10;;
71572;SDS011;59408;51.032;9.410;2023-05-07T03:46:12;34.58;;;16.98;;
71572;SDS011;59408;51.032;9.410;2023-05-07T03:48:38;32.63;;;17.03;;
71572;SDS011;59408;51.032;9.410;2023-05-07T03:51:05;32.15;;;16.40;;
71572;SDS011;59408;51.032;9.410;2023-05-07T03:53:31;31.52;;;16.35;;
71572;SDS011;59408;51.032;9.410;2023-05-07T03:55:58;32.08;;;16.25;;
71572;SDS011;59408;51.032;9.410;2023-05-07T03:58:26;32.00;;;16.63;;
71572;SDS011;59408;51.032;9.410;2023-05-07T04:00:53;31.33;;;16.67;;
71572;SDS011;59408;51.032;9.410;2023-05-07T04:03:19;33.25;;;16.67;;
71572;SDS011;59408;51.032;9.410;2023-05-07T04:05:46;32.78;;;16.77;;
71572;SDS011;59408;51.032;9.410;2023-05-07T04:08:12;33.45;;;17.00;;
71572;SDS011;59408;51.032;9.410;2023-05-07T04:10:39;34.60;;;16.55;;
71572;SDS011;59408;51.032;9.410;2023-05-07T04:13:06;30.83;;;15.77;;
71572;SDS011;59408;51.032;9.410;2023-05-07T04:15:34;35.05;;;16.33;;
71572;SDS011;59408;51.032;9.410;2023-05-07T04:18:01;32.28;;;16.23;;
71572;SDS011;59408;51.032;9.410;2023-05-07T04:20:28;32.65;;;16.25;;
71572;SDS011;59408;51.032;9.410;2023-05-07T04:22:54;32.15;;;16.15;;
71572;SDS011;59408;51.032;9.410;2023-05-07T04:25:21;31.07;;;16.17;;
71572;SDS011;59408;51.032;9.410;2023-05-07T04:27:47;32.55;;;16.77;;
71572;SDS011;59408;51.032;9.410;2023-05-07T04:30:14;33.75;;;16.38;;
71572;SDS011;59408;51.032;9.410;2023-05-07T04:32:42;35.42;;;16.25;;
71572;SDS011;59408;51.032;9.410;2023-05-07T04:35:09;33.45;;;15.80;;
71572;SDS011;59408;51.032;9.410;2023-05-07T04:37:36;31.80;;;15.87;;
71572;SDS011;59408;51.032;9.410;2023-05-07T04:40:02;31.30;;;15.33;;
71572;SDS011;59408;51.032;9.410;2023-05-07T04:42:29;33.38;;;15.68;;
71572;SDS011;59408;51.032;9.410;2023-05-07T04:44:56;30.80;;;14.38;;
71572;SDS011;59408;51.032;9.410;2023-05-07T04:47:22;30.05;;;14.95;;
71572;SDS011;59408;51.032;9.410;2023-05-07T04:49:50;31.08;;;14.95;;
71572;SDS011;59408;51.032;9.410;2023-05-07T04:52:17;28.60;;;13.93;;
71572;SDS011;59408;51.032;9.410;2023-05-07T04:54:44;29.13;;;14.43;;
71572;SDS011;59408;51.032;9.410;2023-05-07T04:57:10;29.05;;;14.23;;
71572;SDS011;59408;51.032;9.410;2023-05-07T04:59:37;29.20;;;15.23;;
71572;SDS011;59408;51.032;9.410;2023-05-07T05:02:04;30.25;;;15.00;;
71572;SDS011;59408;51.032;9.410;2023-05-07T05:04:30;30.37;;;13.93;;
71572;SDS011;59408;51.032;9.410;2023-05-07T05:06:58;30.75;;;14.52;;
71572;SDS011;59408;51.032;9.410;2023-05-07T05:09:25;27.98;;;13.80;;
71572;SDS011;59408;51.032;9.410;2023-05-07T05:11:52;27.95;;;13.57;;
71572;SDS011;59408;51.032;9.410;2023-05-07T05:14:18;28.02;;;14.38;;
71572;SDS011;59408;51.032;9.410;2023-05-07T05:16:45;29.63;;;14.27;;
71572;SDS011;59408;51.032;9.410;2023-05-07T05:19:11;29.20;;;14.03;;
71572;SDS011;59408;51.032;9.410;2023-05-07T05:21:38;28.23;;;13.85;;
71572;SDS011;59408;51.032;9.410;2023-05-07T05:24:06;33.58;;;14.73;;
71572;SDS011;59408;51.032;9.410;2023-05-07T05:26:34;26.55;;;13.82;;
71572;SDS011;59408;51.032;9.410;2023-05-07T05:29:00;28.02;;;13.88;;
71572;SDS011;59408;51.032;9.410;2023-05-07T05:31:27;26.37;;;13.83;;
71572;SDS011;59408;51.032;9.410;2023-05-07T05:33:54;27.38;;;13.68;;
71572;SDS011;59408;51.032;9.410;2023-05-07T05:36:20;24.95;;;12.13;;
71572;SDS011;59408;51.032;9.410;2023-05-07T05:38:47;27.08;;;13.18;;
71572;SDS011;59408;51.032;9.410;2023-05-07T05:41:15;27.00;;;13.75;;
71572;SDS011;59408;51.032;9.410;2023-05-07T05:43:42;24.77;;;13.13;;
71572;SDS011;59408;51.032;9.410;2023-05-07T05:46:08;25.92;;;12.05;;
71572;SDS011;59408;51.032;9.410;2023-05-07T05:48:35;24.77;;;12.57;;
71572;SDS011;59408;51.032;9.410;2023-05-07T05:51:02;26.25;;;12.50;;
71572;SDS011;59408;51.032;9.410;2023-05-07T05:53:29;25.65;;;11.57;;
71572;SDS011;59408;51.032;9.410;2023-05-07T05:55:55;25.00;;;12.60;;
71572;SDS011;59408;51.032;9.410;2023-05-07T05:58:23;23.10;;;11.97;;
71572;SDS011;59408;51.032;9.410;2023-05-07T06:00:50;27.02;;;12.45;;
71572;SDS011;59408;51.032;9.410;2023-05-07T06:03:17;23.75;;;11.75;;
71572;SDS011;59408;51.032;9.410;2023-05-07T06:05:43;25.52;;;12.40;;
71572;SDS011;59408;51.032;9.410;2023-05-07T06:08:10;21.73;;;10.52;;
71572;SDS011;59408;51.032;9.410;2023-05-07T06:10:37;26.20;;;12.67;;
71572;SDS011;59408;51.032;9.410;2023-05-07T06:13:03;22.65;;;10.98;;
71572;SDS011;59408;51.032;9.410;2023-05-07T06:15:31;25.65;;;12.10;;
71572;SDS011;59408;51.032;9.410;2023-05-07T06:17:58;24.05;;;10.70;;
71572;SDS011;59408;51.032;9.410;2023-05-07T06:20:25;23.83;;;11.23;;
71572;SDS011;59408;51.032;9.410;2023-05-07T06:22:51;24.13;;;11.50;;
71572;SDS011;59408;51.032;9.410;2023-05-07T06:25:19;24.70;;;11.70;;
71572;SDS011;59408;51.032;9.410;2023-05-07T06:27:45;21.25;;;10.60;;
71572;SDS011;59408;51.032;9.410;2023-05-07T06:30:12;24.25;;;10.95;;
71572;SDS011;59408;51.032;9.410;2023-05-07T06:32:40;24.73;;;11.52;;
71572;SDS011;59408;51.032;9.410;2023-05-07T06:35:07;23.00;;;11.03;;
71572;SDS011;59408;51.032;9.410;2023-05-07T06:37:35;24.70;;;10.95;;
71572;SDS011;59408;51.032;9.410;2023-05-07T06:40:01;22.63;;;10.48;;
71572;SDS011;59408;51.032;9.410;2023-05-07T06:42:28;24.17;;;11.27;;
71572;SDS011;59408;51.032;9.410;2023-05-07T06:44:55;22.70;;;10.63;;
71572;SDS011;59408;51.032;9.410;2023-05-07T06:47:21;23.17;;;10.87;;
71572;SDS011;59408;51.032;9.410;2023-05-07T06:49:55;22.20;;;10.82;;
71572;SDS011;59408;51.032;9.410;2023-05-07T06:52:39;23.55;;;10.68;;
71572;SDS011;59408;51.032;9.410;2023-05-07T06:55:24;22.60;;;11.07;;
71572;SDS011;59408;51.032;9.410;2023-05-07T07:01:12;23.33;;;10.17;;
71572;SDS011;59408;51.032;9.410;2023-05-07T07:03:46;22.33;;;9.90;;
71572;SDS011;59408;51.032;9.410;2023-05-07T07:06:14;22.30;;;10.77;;
71572;SDS011;59408;51.032;9.410;2023-05-07T07:08:40;21.83;;;9.95;;
71572;SDS011;59408;51.032;9.410;2023-05-07T07:11:07;20.98;;;11.10;;
71572;SDS011;59408;51.032;9.410;2023-05-07T07:13:34;25.10;;;11.43;;
71572;SDS011;59408;51.032;9.410;2023-05-07T07:16:01;24.53;;;10.90;;
71572;SDS011;59408;51.032;9.410;2023-05-07T07:18:28;25.45;;;10.23;;
71572;SDS011;59408;51.032;9.410;2023-05-07T07:20:55;25.63;;;11.75;;
71572;SDS011;59408;51.032;9.410;2023-05-07T07:23:23;22.45;;;10.60;;
71572;SDS011;59408;51.032;9.410;2023-05-07T07:25:49;27.00;;;11.40;;
71572;SDS011;59408;51.032;9.410;2023-05-07T07:28:16;23.73;;;11.07;;
71572;SDS011;59408;51.032;9.410;2023-05-07T07:30:43;23.05;;;10.65;;
71572;SDS011;59408;51.032;9.410;2023-05-07T07:33:13;22.25;;;10.80;;
71572;SDS011;59408;51.032;9.410;2023-05-07T07:35:39;23.50;;;10.50;;
71572;SDS011;59408;51.032;9.410;2023-05-07T07:38:09;25.85;;;10.70;;
71572;SDS011;59408;51.032;9.410;2023-05-07T07:40:37;21.33;;;10.23;;
71572;SDS011;59408;51.032;9.410;2023-05-07T07:43:05;23.85;;;10.77;;
71572;SDS011;59408;51.032;9.410;2023-05-07T07:45:32;24.20;;;10.48;;
71572;SDS011;59408;51.032;9.410;2023-05-07T07:48:01;24.25;;;10.57;;
71572;SDS011;59408;51.032;9.410;2023-05-07T07:50:28;22.70;;;11.75;;
71572;SDS011;59408;51.032;9.410;2023-05-07T07:53:10;22.20;;;10.13;;
71572;SDS011;59408;51.032;9.410;2023-05-07T07:55:39;27.07;;;10.87;;
71572;SDS011;59408;51.032;9.410;2023-05-07T07:58:06;22.48;;;10.90;;
71572;SDS011;59408;51.032;9.410;2023-05-07T08:00:32;21.77;;;10.50;;
71572;SDS011;59408;51.032;9.410;2023-05-07T08:02:59;22.05;;;10.73;;
71572;SDS011;59408;51.032;9.410;2023-05-07T08:05:26;20.27;;;10.18;;
71572;SDS011;59408;51.032;9.410;2023-05-07T08:07:53;21.77;;;10.30;;
71572;SDS011;59408;51.032;9.410;2023-05-07T08:10:21;21.98;;;9.88;;
71572;SDS011;59408;51.032;9.410;2023-05-07T08:12:49;22.77;;;10.15;;
71572;SDS011;59408;51.032;9.410;2023-05-07T08:15:17;23.05;;;10.15;;
71572;SDS011;59408;51.032;9.410;2023-05-07T08:17:44;20.95;;;10.05;;
71572;SDS011;59408;51.032;9.410;2023-05-07T08:20:10;19.13;;;9.60;;
71572;SDS011;59408;51.032;9.410;2023-05-07T08:22:37;18.98;;;9.45;;
71572;SDS011;59408;51.032;9.410;2023-05-07T08:25:04;19.27;;;9.27;;
71572;SDS011;59408;51.032;9.410;2023-05-07T08:27:31;20.23;;;10.13;;
71572;SDS011;59408;51.032;9.410;2023-05-07T08:30:00;18.60;;;9.40;;
71572;SDS011;59408;51.032;9.410;2023-05-07T08:32:29;17.53;;;9.07;;
71572;SDS011;59408;51.032;9.410;2023-05-07T08:34:55;18.33;;;9.02;;
71572;SDS011;59408;51.032;9.410;2023-05-07T08:37:22;19.80;;;9.65;;
71572;SDS011;59408;51.032;9.410;2023-05-07T08:39:49;18.42;;;8.95;;
71572;SDS011;59408;51.032;9.410;2023-05-07T08:42:16;17.42;;;8.98;;
71572;SDS011;59408;51.032;9.410;2023-05-07T08:44:44;16.60;;;8.57;;
71572;SDS011;59408;51.032;9.410;2023-05-07T08:47:13;18.20;;;9.20;;
71572;SDS011;59408;51.032;9.410;2023-05-07T08:49:40;16.08;;;8.27;;
71572;SDS011;59408;51.032;9.410;2023-05-07T08:52:07;16.55;;;8.63;;
71572;SDS011;59408;51.032;9.410;2023-05-07T08:54:36;15.63;;;8.00;;
71572;SDS011;59408;51.032;9.410;2023-05-07T08:57:04;15.70;;;8.63;;
71572;SDS011;59408;51.032;9.410;2023-05-07T08:59:30;17.08;;;8.32;;
71572;SDS011;59408;51.032;9.410;2023-05-07T09:01:57;15.73;;;8.77;;
71572;SDS011;59408;51.032;9.410;2023-05-07T09:04:25;13.93;;;7.90;;
71572;SDS011;59408;51.032;9.410;2023-05-07T09:06:52;14.20;;;8.02;;
71572;SDS011;59408;51.032;9.410;2023-05-07T09:09:18;14.37;;;8.13;;
71572;SDS011;59408;51.032;9.410;2023-05-07T09:11:45;15.45;;;8.18;;
71572;SDS011;59408;51.032;9.410;2023-05-07T09:14:12;13.45;;;7.57;;
71572;SDS011;59408;51.032;9.410;2023-05-07T09:16:39;13.48;;;7.30;;
71572;SDS011;59408;51.032;9.410;2023-05-07T09:19:05;12.25;;;6.88;;
71572;SDS011;59408;51.032;9.410;2023-05-07T09:21:33;13.87;;;7.20;;
71572;SDS011;59408;51.032;9.410;2023-05-07T09:24:00;13.75;;;7.47;;
71572;SDS011;59408;51.032;9.410;2023-05-07T09:26:26;12.27;;;6.57;;
71572;SDS011;59408;51.032;9.410;2023-05-07T09:28:53;12.60;;;6.80;;
71572;SDS011;59408;51.032;9.410;2023-05-07T09:31:19;12.20;;;7.07;;
71572;SDS011;59408;51.032;9.410;2023-05-07T09:33:47;13.33;;;7.00;;
71572;SDS011;59408;51.032;9.410;2023-05-07T09:36:16;12.75;;;6.90;;
71572;SDS011;59408;51.032;9.410;2023-05-07T09:38:50;13.98;;;7.20;;
71572;SDS011;59408;51.032;9.410;2023-05-07T09:41:19;12.73;;;7.10;;
71572;SDS011;59408;51.032;9.410;2023-05-07T09:43:46;13.10;;;7.20;;
71572;SDS011;59408;51.032;9.410;2023-05-07T09:46:19;11.93;;;6.43;;
71572;SDS011;59408;51.032;9.410;2023-05-07T09:48:52;11.07;;;6.47;;
71572;SDS011;59408;51.032;9.410;2023-05-07T09:51:25;11.77;;;6.10;;
71572;SDS011;59408;51.032;9.410;2023-05-07T09:53:57;10.73;;;6.25;;
71572;SDS011;59408;51.032;9.410;2023-05-07T09:56:24;10.23;;;6.13;;
71572;SDS011;59408;51.032;9.410;2023-05-07T09:58:52;10.77;;;5.87;;
71572;SDS011;59408;51.032;9.410;2023-05-07T10:01:22;10.10;;;5.70;;
71572;SDS011;59408;51.032;9.410;2023-05-07T10:03:50;9.82;;;5.90;;
71572;SDS011;59408;51.032;9.410;2023-05-07T10:06:19;10.07;;;5.60;;
71572;SDS011;59408;51.032;9.410;2023-05-07T10:08:46;10.10;;;5.93;;
71572;SDS011;59408;51.032;9.410;2023-05-07T10:11:14;9.20;;;5.70;;
71572;SDS011;59408;51.032;9.410;2023-05-07T10:13:42;10.27;;;5.65;;
71572;SDS011;59408;51.032;9.410;2023-05-07T10:16:09;9.82;;;5.30;;
71572;SDS011;59408;51.032;9.410;2023-05-07T10:18:36;10.98;;;5.72;;
71572;SDS011;59408;51.032;9.410;2023-05-07T10:21:06;9.73;;;5.50;;
71572;SDS011;59408;51.032;9.410;2023-05-07T10:23:34;8.87;;;5.00;;
71572;SDS011;59408;51.032;9.410;2023-05-07T10:26:03;8.90;;;5.10;;
71572;SDS011;59408;51.032;9.410;2023-05-07T10:28:34;9.25;;;4.90;;
71572;SDS011;59408;51.032;9.410;2023-05-07T10:31:08;9.25;;;5.00;;
71572;SDS011;59408;51.032;9.410;2023-05-07T10:33:45;8.18;;;4.78;;
71572;SDS011;59408;51.032;9.410;2023-05-07T10:36:14;8.30;;;4.70;;
71572;SDS011;59408;51.032;9.410;2023-05-07T10:38:41;8.33;;;4.53;;
71572;SDS011;59408;51.032;9.410;2023-05-07T10:41:08;9.07;;;5.00;;
71572;SDS011;59408;51.032;9.410;2023-05-07T10:43:41;9.05;;;4.93;;
71572;SDS011;59408;51.032;9.410;2023-05-07T10:46:09;9.18;;;4.82;;
71572;SDS011;59408;51.032;9.410;2023-05-07T10:51:34;7.83;;;4.20;;
71572;SDS011;59408;51.032;9.410;2023-05-07T10:54:18;8.23;;;5.15;;
71572;SDS011;59408;51.032;9.410;2023-05-07T10:56:45;8.60;;;4.60;;
71572;SDS011;59408;51.032;9.410;2023-05-07T10:59:33;7.68;;;4.60;;
71572;SDS011;59408;51.032;9.410;2023-05-07T11:02:02;9.50;;;4.72;;
71572;SDS011;59408;51.032;9.410;2023-05-07T11:04:29;8.70;;;5.33;;
71572;SDS011;59408;51.032;9.410;2023-05-07T11:07:09;9.00;;;4.70;;
71572;SDS011;59408;51.032;9.410;2023-05-07T11:09:56;8.38;;;4.72;;
71572;SDS011;59408;51.032;9.410;2023-05-07T11:15:37;8.20;;;5.10;;
71572;SDS011;59408;51.032;9.410;2023-05-07T11:18:08;9.67;;;4.57;;
71572;SDS011;59408;51.032;9.410;2023-05-07T11:20:52;8.60;;;4.60;;
71572;SDS011;59408;51.032;9.410;2023-05-07T11:26:21;8.50;;;4.88;;
71572;SDS011;59408;51.032;9.410;2023-05-07T11:28:48;9.07;;;5.20;;
71572;SDS011;59408;51.032;9.410;2023-05-07T11:31:20;8.33;;;4.43;;
71572;SDS011;59408;51.032;9.410;2023-05-07T11:33:47;8.95;;;5.03;;
71572;SDS011;59408;51.032;9.410;2023-05-07T11:36:14;8.70;;;5.30;;
71572;SDS011;59408;51.032;9.410;2023-05-07T11:38:42;8.27;;;4.80;;
71572;SDS011;59408;51.032;9.410;2023-05-07T11:41:08;9.80;;;4.95;;
71572;SDS011;59408;51.032;9.410;2023-05-07T11:43:35;8.70;;;4.50;;
71572;SDS011;59408;51.032;9.410;2023-05-07T11:46:05;7.80;;;4.60;;
71572;SDS011;59408;51.032;9.410;2023-05-07T11:48:34;10.88;;;6.47;;
71572;SDS011;59408;51.032;9.410;2023-05-07T11:51:01;7.68;;;4.65;;
71572;SDS011;59408;51.032;9.410;2023-05-07T11:53:35;9.57;;;5.30;;
71572;SDS011;59408;51.032;9.410;2023-05-07T11:56:05;7.93;;;4.33;;
71572;SDS011;59408;51.032;9.410;2023-05-07T11:58:32;8.77;;;5.22;;
71572;SDS011;59408;51.032;9.410;2023-05-07T12:00:59;8.80;;;5.20;;
71572;SDS011;59408;51.032;9.410;2023-05-07T12:03:26;8.55;;;4.97;;
71572;SDS011;59408;51.032;9.410;2023-05-07T12:05:59;9.20;;;5.15;;
71572;SDS011;59408;51.032;9.410;2023-05-07T12:08:26;9.00;;;4.67;;
71572;SDS011;59408;51.032;9.410;2023-05-07T12:10:53;8.20;;;5.15;;
71572;SDS011;59408;51.032;9.410;2023-05-07T12:13:21;10.73;;;5.63;;
71572;SDS011;59408;51.032;9.410;2023-05-07T12:15:50;8.65;;;5.47;;
71572;SDS011;59408;51.032;9.410;2023-05-07T12:18:17;7.95;;;4.82;;
71572;SDS011;59408;51.032;9.410;2023-05-07T12:20:44;8.97;;;4.90;;
71572;SDS011;59408;51.032;9.410;2023-05-07T12:23:12;7.70;;;5.07;;
71572;SDS011;59408;51.032;9.410;2023-05-07T12:25:40;8.77;;;5.50;;
71572;SDS011;59408;51.032;9.410;2023-05-07T12:28:08;9.55;;;5.60;;
71572;SDS011;59408;51.032;9.410;2023-05-07T12:30:39;9.00;;;5.68;;
71572;SDS011;59408;51.032;9.410;2023-05-07T12:33:06;10.30;;;5.50;;
71572;SDS011;59408;51.032;9.410;2023-05-07T12:35:35;9.23;;;5.90;;
71572;SDS011;59408;51.032;9.410;2023-05-07T12:38:03;9.50;;;6.00;;
71572;SDS011;59408;51.032;9.410;2023-05-07T12:40:38;9.30;;;5.53;;
71572;SDS011;59408;51.032;9.410;2023-05-07T12:43:06;8.90;;;5.55;;
71572;SDS011;59408;51.032;9.410;2023-05-07T12:45:38;8.47;;;5.50;;
71572;SDS011;59408;51.032;9.410;2023-05-07T12:48:04;9.90;;;5.85;;
71572;SDS011;59408;51.032;9.410;2023-05-07T12:50:31;8.90;;;5.78;;
71572;SDS011;59408;51.032;9.410;2023-05-07T12:52:59;8.60;;;5.72;;
71572;SDS011;59408;51.032;9.410;2023-05-07T12:55:26;9.05;;;5.80;;
71572;SDS011;59408;51.032;9.410;2023-05-07T12:58:00;13.87;;;7.17;;
71572;SDS011;59408;51.032;9.410;2023-05-07T13:00:34;10.63;;;6.22;;
71572;SDS011;59408;51.032;9.410;2023-05-07T13:03:01;10.70;;;6.40;;
71572;SDS011;59408;51.032;9.410;2023-05-07T13:05:28;9.07;;;5.20;;
71572;SDS011;59408;51.032;9.410;2023-05-07T13:07:55;9.68;;;5.97;;
71572;SDS011;59408;51.032;9.410;2023-05-07T13:10:22;10.13;;;6.17;;
71572;SDS011;59408;51.032;9.410;2023-05-07T13:12:49;9.40;;;5.97;;
71572;SDS011;59408;51.032;9.410;2023-05-07T13:15:17;9.40;;;6.57;;
71572;SDS011;59408;51.032;9.410;2023-05-07T13:17:44;9.60;;;6.25;;
71572;SDS011;59408;51.032;9.410;2023-05-07T13:26:29;9.57;;;5.97;;
71572;SDS011;59408;51.032;9.410;2023-05-07T13:28:56;10.93;;;6.65;;
71572;SDS011;59408;51.032;9.410;2023-05-07T13:31:24;9.55;;;6.45;;
71572;SDS011;59408;51.032;9.410;2023-05-07T13:33:51;9.20;;;6.40;;
71572;SDS011;59408;51.032;9.410;2023-05-07T13:36:17;9.70;;;6.20;;
71572;SDS011;59408;51.032;9.410;2023-05-07T13:38:44;10.43;;;6.00;;
71572;SDS011;59408;51.032;9.410;2023-05-07T13:41:11;10.02;;;6.03;;
71572;SDS011;59408;51.032;9.410;2023-05-07T13:43:37;9.82;;;6.32;;
71572;SDS011;59408;51.032;9.410;2023-05-07T13:46:04;10.60;;;6.32;;
71572;SDS011;59408;51.032;9.410;2023-05-07T13:48:32;11.10;;;5.80;;
71572;SDS011;59408;51.032;9.410;2023-05-07T13:50:58;9.00;;;5.38;;
71572;SDS011;59408;51.032;9.410;2023-05-07T13:53:25;9.38;;;6.07;;
71572;SDS011;59408;51.032;9.410;2023-05-07T13:55:51;9.00;;;5.82;;
71572;SDS011;59408;51.032;9.410;2023-05-07T13:58:18;8.90;;;5.72;;
71572;SDS011;59408;51.032;9.410;2023-05-07T14:00:44;9.67;;;5.77;;
71572;SDS011;59408;51.032;9.410;2023-05-07T14:03:11;8.85;;;5.97;;
71572;SDS011;59408;51.032;9.410;2023-05-07T14:05:39;9.95;;;6.32;;
71572;SDS011;59408;51.032;9.410;2023-05-07T14:08:06;9.25;;;5.72;;
71572;SDS011;59408;51.032;9.410;2023-05-07T14:10:32;9.45;;;6.30;;
71572;SDS011;59408;51.032;9.410;2023-05-07T14:12:59;9.67;;;6.20;;
71572;SDS011;59408;51.032;9.410;2023-05-07T14:15:26;8.90;;;5.75;;
71572;SDS011;59408;51.032;9.410;2023-05-07T14:17:52;9.50;;;5.53;;
71572;SDS011;59408;51.032;9.410;2023-05-07T14:20:20;9.75;;;5.97;;
71572;SDS011;59408;51.032;9.410;2023-05-07T14:22:48;10.27;;;6.15;;
71572;SDS011;59408;51.032;9.410;2023-05-07T14:25:14;9.10;;;6.10;;
71572;SDS011;59408;51.032;9.410;2023-05-07T14:27:41;8.90;;;5.35;;
71572;SDS011;59408;51.032;9.410;2023-05-07T14:30:08;8.93;;;5.47;;
71572;SDS011;59408;51.032;9.410;2023-05-07T14:32:35;8.55;;;5.68;;
71572;SDS011;59408;51.032;9.410;2023-05-07T14:35:02;9.25;;;6.00;;
71572;SDS011;59408;51.032;9.410;2023-05-07T14:37:28;9.33;;;5.57;;
71572;SDS011;59408;51.032;9.410;2023-05-07T14:39:56;8.60;;;5.93;;
71572;SDS011;59408;51.032;9.410;2023-05-07T14:42:23;9.40;;;5.65;;
71572;SDS011;59408;51.032;9.410;2023-05-07T14:44:49;8.10;;;5.38;;
71572;SDS011;59408;51.032;9.410;2023-05-07T14:47:16;10.15;;;6.00;;
71572;SDS011;59408;51.032;9.410;2023-05-07T14:49:45;8.90;;;5.77;;
71572;SDS011;59408;51.032;9.410;2023-05-07T14:52:12;9.98;;;6.05;;